createdAt,value
2024-02-29T00:02:26.655Z,2.45
2024-02-29T00:04:54.582Z,2.30
2024-02-29T00:07:22.695Z,2.42
2024-02-29T00:09:50.831Z,2.50
2024-02-29T00:12:18.482Z,2.25
2024-02-29T00:14:46.464Z,2.30
2024-02-29T00:17:14.107Z,2.50
2024-02-29T00:19:41.990Z,2.70
2024-02-29T00:22:10.266Z,2.53
2024-02-29T00:24:38.315Z,2.15
2024-02-29T00:27:06.565Z,2.20
2024-02-29T00:29:35.691Z,2.10
2024-02-29T00:32:03.528Z,2.00
2024-02-29T00:34:31.409Z,2.17
2024-02-29T00:36:59.112Z,2.05
2024-02-29T00:39:27.071Z,1.98
2024-02-29T00:41:54.675Z,1.90
2024-02-29T00:44:22.557Z,1.80
2024-02-29T00:46:50.144Z,1.90
2024-02-29T00:49:18.322Z,1.88
2024-02-29T00:51:46.969Z,1.80
2024-02-29T00:54:14.858Z,1.80
2024-02-29T00:56:42.684Z,1.73
2024-02-29T00:59:10.657Z,1.80
2024-02-29T01:01:38.372Z,1.75
2024-02-29T01:04:06.361Z,1.63
2024-02-29T01:06:34.039Z,1.85
2024-02-29T01:09:01.943Z,1.60
2024-02-29T01:11:29.647Z,2.10
2024-02-29T01:13:57.698Z,1.52
2024-02-29T01:16:25.344Z,1.70
2024-02-29T01:18:53.283Z,1.60
2024-02-29T01:21:20.952Z,2.00
2024-02-29T01:23:48.902Z,1.70
2024-02-29T01:26:16.489Z,1.70
2024-02-29T01:28:45.025Z,1.67
2024-02-29T01:31:12.789Z,1.63
2024-02-29T01:33:41.055Z,1.88
2024-02-29T01:36:08.873Z,1.85
2024-02-29T01:38:36.783Z,1.90
2024-02-29T01:41:04.832Z,1.80
2024-02-29T01:43:32.828Z,2.03
2024-02-29T01:46:20.991Z,1.77
2024-02-29T01:48:51.977Z,1.55
2024-02-29T01:51:21.401Z,1.90
2024-02-29T01:53:49.312Z,1.98
2024-02-29T01:56:20.062Z,1.83
2024-02-29T01:58:48.364Z,1.50
2024-02-29T02:01:16.418Z,1.88
2024-02-29T02:03:44.506Z,1.73
2024-02-29T02:06:12.236Z,1.80
2024-02-29T02:08:40.278Z,1.60
2024-02-29T02:11:08.069Z,1.50
2024-02-29T02:13:36.018Z,1.45
2024-02-29T02:16:03.835Z,1.50
2024-02-29T02:18:31.819Z,1.83
2024-02-29T02:20:59.480Z,1.38
2024-02-29T02:23:27.374Z,1.80
2024-02-29T02:26:01.886Z,1.73
2024-02-29T02:28:30.489Z,1.45
2024-02-29T02:30:58.223Z,1.38
2024-02-29T02:33:26.133Z,1.42
2024-02-29T02:35:53.764Z,1.50
2024-02-29T02:38:21.752Z,1.60
2024-02-29T02:40:49.349Z,1.52
2024-02-29T02:43:17.241Z,1.85
2024-02-29T02:45:44.907Z,1.27
2024-02-29T02:48:12.905Z,1.60
2024-02-29T02:50:40.566Z,1.67
2024-02-29T02:53:09.010Z,1.58
2024-02-29T02:58:03.225Z,1.88
2024-02-29T03:00:31.330Z,1.58
2024-02-29T03:03:00.848Z,1.38
2024-02-29T03:05:29.207Z,1.50
2024-02-29T03:07:56.890Z,1.90
2024-02-29T03:10:24.763Z,1.77
2024-02-29T03:12:52.402Z,1.70
2024-02-29T03:15:20.254Z,1.52
2024-02-29T03:17:48.268Z,1.67
2024-02-29T03:20:16.233Z,1.80
2024-02-29T03:22:43.958Z,1.88
2024-02-29T03:25:12.448Z,1.90
2024-02-29T03:27:40.124Z,1.98
2024-02-29T03:30:08.587Z,2.10
2024-02-29T03:32:36.242Z,1.90
2024-02-29T03:35:06.148Z,2.10
2024-02-29T03:37:33.729Z,1.83
2024-02-29T03:40:01.791Z,1.80
2024-02-29T03:42:29.486Z,1.80
2024-02-29T03:44:58.251Z,2.30
2024-02-29T03:47:25.973Z,1.77
2024-02-29T03:49:53.806Z,1.80
2024-02-29T03:52:21.533Z,1.70
2024-02-29T03:54:49.474Z,1.80
2024-02-29T03:57:17.066Z,1.75
2024-02-29T03:59:47.929Z,1.90
2024-02-29T04:02:15.733Z,1.80
2024-02-29T04:04:43.684Z,1.80
2024-02-29T04:07:11.310Z,2.20
2024-02-29T04:09:39.301Z,2.45
2024-02-29T04:12:07.303Z,1.75
2024-02-29T04:14:39.528Z,2.03
2024-02-29T04:17:07.101Z,1.80
2024-02-29T04:19:35.065Z,1.70
2024-02-29T04:22:02.747Z,1.80
2024-02-29T04:24:30.727Z,1.50
2024-02-29T04:26:58.282Z,1.70
2024-02-29T04:29:26.121Z,2.45
2024-02-29T04:31:53.809Z,1.80
2024-02-29T04:34:21.896Z,2.47
2024-02-29T04:36:49.602Z,1.80
2024-02-29T04:39:19.415Z,1.95
2024-02-29T04:41:47.116Z,1.90
2024-02-29T04:44:15.190Z,1.85
2024-02-29T04:46:43.065Z,2.20
2024-02-29T04:49:11.001Z,2.00
2024-02-29T04:51:39.023Z,2.00
2024-02-29T04:54:07.103Z,1.85
2024-02-29T04:56:36.583Z,1.90
2024-02-29T04:59:05.714Z,1.88
2024-02-29T05:01:33.810Z,2.80
2024-02-29T05:04:01.535Z,1.88
2024-02-29T05:06:30.280Z,1.75
2024-02-29T05:08:57.845Z,2.03
2024-02-29T05:11:27.144Z,2.13
2024-02-29T05:13:54.807Z,2.00
2024-02-29T05:16:23.198Z,2.25
2024-02-29T05:18:52.159Z,1.80
2024-02-29T05:21:21.284Z,1.85
2024-02-29T05:23:49.172Z,2.00
2024-02-29T05:26:17.292Z,2.00
2024-02-29T05:28:44.866Z,1.98
2024-02-29T05:31:12.894Z,1.75
2024-02-29T05:33:43.667Z,2.05
2024-02-29T05:36:11.755Z,1.77
2024-02-29T05:38:39.360Z,1.70
2024-02-29T05:41:07.668Z,2.20
2024-02-29T05:43:36.302Z,1.90
2024-02-29T05:46:04.665Z,1.80
2024-02-29T05:48:36.287Z,1.95
2024-02-29T05:51:05.048Z,2.15
2024-02-29T05:53:32.634Z,2.30
2024-02-29T05:56:00.744Z,1.98
2024-02-29T05:58:31.867Z,2.08
2024-02-29T06:03:27.779Z,2.45
2024-02-29T06:05:55.717Z,2.30
2024-02-29T06:08:23.359Z,2.60
2024-02-29T06:10:51.289Z,2.15
2024-02-29T06:13:19.148Z,2.10
2024-02-29T06:15:47.130Z,2.17
2024-02-29T06:18:14.995Z,2.65
2024-02-29T06:20:43.165Z,2.20
2024-02-29T06:23:10.794Z,1.98
2024-02-29T06:25:38.870Z,2.28
2024-02-29T06:28:06.758Z,2.10
2024-02-29T06:30:34.958Z,2.75
2024-02-29T06:33:03.009Z,2.03
2024-02-29T06:35:31.055Z,1.85
2024-02-29T06:37:58.657Z,1.92
2024-02-29T06:40:26.596Z,2.40
2024-02-29T06:42:54.367Z,2.35
2024-02-29T06:45:22.432Z,1.90
2024-02-29T06:47:50.098Z,1.90
2024-02-29T06:50:18.467Z,1.90
2024-02-29T06:52:46.255Z,1.73
2024-02-29T06:55:14.515Z,1.70
2024-02-29T06:57:43.345Z,1.98
2024-02-29T07:00:12.735Z,2.08
2024-02-29T07:02:40.630Z,1.65
2024-02-29T07:05:09.749Z,1.70
2024-02-29T07:07:37.696Z,1.83
2024-02-29T07:10:08.253Z,1.60
2024-02-29T07:12:36.018Z,1.70
2024-02-29T07:15:05.195Z,1.70
2024-02-29T07:17:32.815Z,1.20
2024-02-29T07:20:00.751Z,1.20
2024-02-29T07:22:28.476Z,1.63
2024-02-29T07:24:56.439Z,1.58
2024-02-29T07:27:24.600Z,1.50
2024-02-29T07:29:52.492Z,1.90
2024-02-29T07:32:20.152Z,1.70
2024-02-29T07:34:48.215Z,1.60
2024-02-29T07:37:15.988Z,1.90
2024-02-29T07:39:44.017Z,1.80
2024-02-29T07:42:11.745Z,1.70
2024-02-29T07:44:39.718Z,1.90
2024-02-29T07:47:07.419Z,2.03
2024-02-29T07:49:35.348Z,1.80
2024-02-29T07:52:02.986Z,1.77
2024-02-29T07:54:30.962Z,1.75
2024-02-29T07:56:58.992Z,1.95
2024-02-29T07:59:26.996Z,1.85
2024-02-29T08:01:54.804Z,1.70
2024-02-29T08:04:22.931Z,2.00
2024-02-29T08:06:50.869Z,1.63
2024-02-29T08:09:18.845Z,2.03
2024-02-29T08:11:47.257Z,1.67
2024-02-29T08:14:17.503Z,1.63
2024-02-29T08:16:46.563Z,1.48
2024-02-29T08:19:14.658Z,1.60
2024-02-29T08:21:42.422Z,1.70
2024-02-29T08:24:10.355Z,1.55
2024-02-29T08:26:38.054Z,1.50
2024-02-29T08:29:06.052Z,1.40
2024-02-29T08:31:34.559Z,1.58
2024-02-29T08:34:02.652Z,1.50
2024-02-29T08:36:30.699Z,1.40
2024-02-29T08:38:59.650Z,1.80
2024-02-29T08:41:27.677Z,1.30
2024-02-29T08:43:55.741Z,1.80
2024-02-29T08:46:23.785Z,1.90
2024-02-29T08:48:52.209Z,1.77
2024-02-29T08:51:21.846Z,1.80
2024-02-29T08:53:50.152Z,1.50
2024-02-29T08:56:18.249Z,1.80
2024-02-29T08:58:46.288Z,1.70
2024-02-29T09:01:14.185Z,1.83
2024-02-29T09:03:42.245Z,1.35
2024-02-29T09:06:09.939Z,1.15
2024-02-29T09:08:37.869Z,1.58
2024-02-29T09:11:05.617Z,1.10
2024-02-29T09:13:35.872Z,1.20
2024-02-29T09:16:04.919Z,1.38
2024-02-29T09:18:33.647Z,1.13
2024-02-29T09:21:01.342Z,1.30
2024-02-29T09:23:30.233Z,1.30
2024-02-29T09:25:58.095Z,1.48
2024-02-29T09:28:26.193Z,1.60
2024-02-29T09:30:54.942Z,1.77
2024-02-29T09:33:24.338Z,1.55
2024-02-29T09:35:58.486Z,1.40
2024-02-29T09:38:26.548Z,1.77
2024-02-29T09:41:03.209Z,1.60
2024-02-29T09:43:42.240Z,1.58
2024-02-29T09:46:11.645Z,1.85
2024-02-29T09:48:41.003Z,1.80
2024-02-29T09:51:16.465Z,2.10
2024-02-29T09:53:45.080Z,1.63
2024-02-29T09:56:14.955Z,1.75
2024-02-29T09:58:43.991Z,1.23
2024-02-29T10:01:12.122Z,1.75
2024-02-29T10:03:41.191Z,1.40
2024-02-29T10:06:10.189Z,1.27
2024-02-29T10:08:39.519Z,1.48
2024-02-29T10:11:08.563Z,1.30
2024-02-29T10:13:41.169Z,1.48
2024-02-29T10:16:10.193Z,1.48
2024-02-29T10:18:39.694Z,1.38
2024-02-29T10:21:12.349Z,1.70
2024-02-29T10:23:41.319Z,1.52
2024-02-29T10:26:09.982Z,1.55
2024-02-29T10:28:38.169Z,1.60
2024-02-29T10:31:06.127Z,2.00
2024-02-29T10:33:39.352Z,1.42
2024-02-29T10:36:14.730Z,1.30
2024-02-29T10:38:42.985Z,1.25
2024-02-29T10:41:12.206Z,1.20
2024-02-29T10:43:44.245Z,0.95
2024-02-29T10:46:15.018Z,1.52
2024-02-29T10:48:56.274Z,1.23
2024-02-29T10:51:32.980Z,1.20
2024-02-29T10:54:14.379Z,1.20
2024-02-29T10:56:46.316Z,1.65
2024-02-29T10:59:17.826Z,1.45
2024-02-29T11:01:46.593Z,1.02
2024-02-29T11:04:17.970Z,0.90
2024-02-29T11:06:50.090Z,1.98
2024-02-29T11:09:23.235Z,2.00
2024-02-29T11:12:12.307Z,2.45
2024-02-29T11:14:44.598Z,1.95
2024-02-29T11:17:15.977Z,2.45
2024-02-29T11:19:51.994Z,1.35
2024-02-29T11:22:35.788Z,1.75
2024-02-29T11:25:12.216Z,1.58
2024-02-29T11:27:53.726Z,1.90
2024-02-29T11:30:25.001Z,1.88
2024-02-29T11:32:53.212Z,1.40
2024-02-29T11:35:21.862Z,1.30
2024-02-29T11:37:51.048Z,1.40
2024-02-29T11:40:21.198Z,1.58
2024-02-29T11:42:49.325Z,1.35
2024-02-29T11:45:23.805Z,1.40
2024-02-29T11:47:52.264Z,1.30
2024-02-29T11:50:20.495Z,1.52
2024-02-29T11:52:48.287Z,1.45
2024-02-29T11:55:16.285Z,1.30
2024-02-29T11:57:44.086Z,1.00
2024-02-29T12:00:13.970Z,1.05
2024-02-29T12:02:44.926Z,1.50
2024-02-29T12:05:13.613Z,1.15
2024-02-29T12:07:41.425Z,1.30
2024-02-29T12:10:12.217Z,1.40
2024-02-29T12:12:40.833Z,1.47
2024-02-29T12:15:10.031Z,1.40
2024-02-29T12:17:38.362Z,1.10
2024-02-29T12:20:06.790Z,0.90
2024-02-29T12:22:34.578Z,1.10
2024-02-29T12:25:15.431Z,1.00
2024-02-29T12:27:44.130Z,1.00
2024-02-29T12:30:13.574Z,1.00
2024-02-29T12:32:43.904Z,1.10
2024-02-29T12:35:13.565Z,1.20
2024-02-29T12:37:44.132Z,0.93
2024-02-29T12:40:16.164Z,1.38
2024-02-29T12:42:44.093Z,1.30
2024-02-29T12:45:15.257Z,1.30
2024-02-29T12:47:44.856Z,1.10
2024-02-29T12:50:13.464Z,1.20
2024-02-29T12:52:41.945Z,1.05
2024-02-29T12:55:10.581Z,1.15
2024-02-29T12:57:38.297Z,1.20
2024-02-29T13:00:07.150Z,1.00
2024-02-29T13:02:34.847Z,1.17
2024-02-29T13:05:02.696Z,1.60
2024-02-29T13:07:30.416Z,1.98
2024-02-29T13:09:58.413Z,1.00
2024-02-29T13:12:26.229Z,0.90
2024-02-29T13:14:54.240Z,0.60
2024-02-29T13:17:21.938Z,0.70
2024-02-29T13:19:49.908Z,0.95
2024-02-29T13:22:17.705Z,1.17
2024-02-29T13:24:46.540Z,0.90
2024-02-29T13:27:14.288Z,0.68
2024-02-29T13:29:42.282Z,1.60
2024-02-29T13:32:10.105Z,1.13
2024-02-29T13:34:38.122Z,1.30
2024-02-29T13:37:05.986Z,1.20
2024-02-29T13:39:34.178Z,1.00
2024-02-29T13:42:06.434Z,1.13
2024-02-29T13:44:34.484Z,1.15
2024-02-29T13:47:03.547Z,1.08
2024-02-29T13:49:32.533Z,1.15
2024-02-29T13:52:00.343Z,1.15
2024-02-29T13:54:28.457Z,1.05
2024-02-29T13:56:56.233Z,1.10
2024-02-29T13:59:25.476Z,1.10
2024-02-29T14:01:53.164Z,1.40
2024-02-29T14:04:21.579Z,1.27
2024-02-29T14:06:49.316Z,1.50
2024-02-29T14:09:17.326Z,1.60
2024-02-29T14:11:45.048Z,1.48
2024-02-29T14:14:13.034Z,1.10
2024-02-29T14:16:40.747Z,1.30
2024-02-29T14:19:10.852Z,1.33
2024-02-29T14:21:38.803Z,1.63
2024-02-29T14:24:06.885Z,1.40
2024-02-29T14:26:34.824Z,1.50
2024-02-29T14:29:04.583Z,1.08
2024-02-29T14:31:32.257Z,1.20
2024-02-29T14:34:00.419Z,1.30
2024-02-29T14:36:28.481Z,1.30
2024-02-29T14:38:56.421Z,1.50
2024-02-29T14:41:26.666Z,1.20
2024-02-29T14:43:54.766Z,1.25
2024-02-29T14:46:22.960Z,1.10
2024-02-29T14:48:51.183Z,1.40
2024-02-29T14:51:18.920Z,1.30
2024-02-29T14:53:51.358Z,1.35
2024-02-29T14:56:19.198Z,1.65
2024-02-29T14:58:47.873Z,1.55
2024-02-29T15:01:16.184Z,1.38
2024-02-29T15:03:44.404Z,1.35
2024-02-29T15:06:13.141Z,1.50
2024-02-29T15:08:41.388Z,1.40
2024-02-29T15:11:09.135Z,1.35
2024-02-29T15:13:37.599Z,1.33
2024-02-29T15:16:05.596Z,1.00
2024-02-29T15:18:34.756Z,1.25
2024-02-29T15:21:02.787Z,1.50
2024-02-29T15:23:30.805Z,1.23
2024-02-29T15:25:59.888Z,1.27
2024-02-29T15:28:29.855Z,1.30
2024-02-29T15:30:57.845Z,1.30
2024-02-29T15:33:25.973Z,1.42
2024-02-29T15:35:53.759Z,1.60
2024-02-29T15:38:21.996Z,1.65
2024-02-29T15:40:49.813Z,1.60
2024-02-29T15:43:19.159Z,2.05
2024-02-29T15:45:46.911Z,2.20
2024-02-29T15:48:15.656Z,2.33
2024-02-29T15:50:46.660Z,2.42
2024-02-29T15:53:14.828Z,2.10
2024-02-29T15:55:42.687Z,2.25
2024-02-29T15:58:11.238Z,2.30
2024-02-29T16:00:38.996Z,2.22
2024-02-29T16:03:07.318Z,2.38
2024-02-29T16:05:35.049Z,2.20
2024-02-29T16:08:03.162Z,2.00
2024-02-29T16:10:32.606Z,2.38
2024-02-29T16:13:03.029Z,2.15
2024-02-29T16:15:30.864Z,1.95
2024-02-29T16:17:58.911Z,2.10
2024-02-29T16:20:26.839Z,2.40
2024-02-29T16:22:54.859Z,2.20
2024-02-29T16:25:23.676Z,1.80
2024-02-29T16:27:52.646Z,2.83
2024-02-29T16:30:20.656Z,2.10
2024-02-29T16:32:48.705Z,1.58
2024-02-29T16:35:16.320Z,2.00
2024-02-29T16:37:44.845Z,1.67
2024-02-29T16:40:13.157Z,2.20
2024-02-29T16:42:41.226Z,2.83
2024-02-29T16:45:09.291Z,3.13
2024-02-29T16:47:39.081Z,2.53
2024-02-29T16:50:07.212Z,2.33
2024-02-29T16:52:35.377Z,2.50
2024-02-29T16:55:03.234Z,1.95
2024-02-29T16:57:31.370Z,1.45
2024-02-29T16:59:59.098Z,1.65
2024-02-29T17:02:27.063Z,1.50
2024-02-29T17:04:54.783Z,1.58
2024-02-29T17:07:23.467Z,1.63
2024-02-29T17:09:52.766Z,1.23
2024-02-29T17:12:20.862Z,1.50
2024-02-29T17:14:49.056Z,1.63
2024-02-29T17:17:17.186Z,1.55
2024-02-29T17:19:44.865Z,2.15
2024-02-29T17:22:12.890Z,1.60
2024-02-29T17:24:40.785Z,1.50
2024-02-29T17:27:08.901Z,3.50
2024-02-29T17:29:38.784Z,1.80
2024-02-29T17:32:09.675Z,1.98
2024-02-29T17:34:37.431Z,1.73
2024-02-29T17:37:06.333Z,2.53
2024-02-29T17:39:34.044Z,2.05
2024-02-29T17:42:02.791Z,1.92
2024-02-29T17:44:30.583Z,1.80
2024-02-29T17:46:59.171Z,1.83
2024-02-29T17:49:30.728Z,1.70
2024-02-29T17:51:59.325Z,2.10
2024-02-29T17:56:54.998Z,1.63
2024-02-29T17:59:23.351Z,1.63
2024-02-29T18:01:51.287Z,1.50
2024-02-29T18:04:19.537Z,1.58
2024-02-29T18:06:49.256Z,1.90
2024-02-29T18:11:46.310Z,1.70
2024-02-29T18:14:16.503Z,1.70
2024-02-29T18:16:44.424Z,1.88
2024-02-29T18:19:13.140Z,1.75
2024-02-29T18:21:44.965Z,2.10
2024-02-29T18:24:13.292Z,2.03
2024-02-29T18:26:41.862Z,1.52
2024-02-29T18:29:10.789Z,2.00
2024-02-29T18:31:38.538Z,2.00
2024-02-29T18:34:07.674Z,1.60
2024-02-29T18:36:38.869Z,2.00
2024-02-29T18:45:38.053Z,1.65
2024-02-29T18:48:08.075Z,1.90
2024-02-29T18:50:35.781Z,1.90
2024-02-29T18:58:35.155Z,1.83
2024-02-29T19:03:31.344Z,1.70
2024-02-29T19:06:21.542Z,1.52
2024-02-29T19:13:19.298Z,5.05
2024-02-29T19:15:51.852Z,3.33
2024-02-29T19:18:20.464Z,2.75
2024-02-29T19:20:49.242Z,3.70
2024-02-29T19:23:17.117Z,2.78
2024-02-29T19:25:52.265Z,2.88
2024-02-29T19:28:23.893Z,2.83
2024-02-29T19:30:55.855Z,2.53
2024-02-29T19:33:23.578Z,2.22
2024-02-29T19:35:53.364Z,2.35
2024-02-29T19:38:21.548Z,2.17
2024-02-29T19:40:50.677Z,1.90
2024-02-29T19:43:19.255Z,1.90
2024-02-29T19:45:47.785Z,2.00
2024-02-29T19:48:21.341Z,2.00
2024-02-29T19:50:52.182Z,2.15
2024-02-29T19:53:45.250Z,2.40
2024-02-29T19:56:15.081Z,2.65
2024-02-29T19:58:42.815Z,2.30
2024-02-29T20:01:17.406Z,2.22
2024-02-29T20:06:55.146Z,3.10
2024-02-29T20:11:51.071Z,2.15
2024-02-29T20:14:19.211Z,3.40
2024-02-29T20:16:47.257Z,2.30
2024-02-29T20:19:16.267Z,2.67
2024-02-29T20:21:46.153Z,2.63
2024-02-29T20:24:14.871Z,2.45
2024-02-29T20:26:44.596Z,2.45
2024-02-29T20:29:12.867Z,2.20
2024-02-29T20:31:40.764Z,2.60
2024-02-29T20:34:09.017Z,2.60
2024-02-29T20:36:38.728Z,3.00
2024-02-29T20:39:07.020Z,2.95
2024-02-29T20:41:34.824Z,3.10
2024-02-29T20:44:05.768Z,3.20
2024-02-29T20:46:35.274Z,2.83
2024-02-29T20:49:03.724Z,3.20
2024-02-29T20:51:31.887Z,3.40
2024-02-29T20:54:02.024Z,2.88
2024-02-29T20:56:30.280Z,2.42
2024-02-29T20:58:59.105Z,2.83
2024-02-29T21:01:26.914Z,3.03
2024-02-29T21:03:57.892Z,2.65
2024-02-29T21:06:27.029Z,2.78
2024-02-29T21:09:03.028Z,2.65
2024-02-29T21:11:33.377Z,3.03
2024-02-29T21:14:03.970Z,3.20
2024-02-29T21:25:52.428Z,2.38
2024-02-29T21:31:37.269Z,2.80
2024-02-29T21:34:08.854Z,3.45
2024-02-29T21:39:45.669Z,2.83
2024-02-29T21:43:17.704Z,2.67
2024-02-29T21:51:53.950Z,2.25
2024-02-29T22:04:00.012Z,2.70
2024-02-29T22:10:21.180Z,2.58
2024-02-29T22:13:14.868Z,2.33
2024-02-29T22:15:59.237Z,2.40
2024-02-29T22:18:33.749Z,2.30
2024-02-29T22:21:04.469Z,2.00
2024-02-29T22:23:42.461Z,2.08
2024-02-29T22:26:37.333Z,1.85
2024-02-29T22:29:15.377Z,2.20
2024-02-29T22:31:47.415Z,2.20
2024-02-29T22:34:22.517Z,1.98
2024-02-29T22:36:58.138Z,1.80
2024-02-29T22:40:01.807Z,1.90
2024-02-29T22:45:23.043Z,1.90
2024-02-29T22:47:52.418Z,1.90
2024-02-29T22:50:46.504Z,2.28
2024-02-29T22:53:22.421Z,2.15
2024-02-29T22:56:07.314Z,2.30
2024-02-29T22:59:07.781Z,2.00
2024-02-29T23:02:11.203Z,2.20
2024-02-29T23:04:50.024Z,2.42
